createdAt,value
2017-05-22T00:02:04.889Z,9.50
2017-05-22T00:04:33.169Z,9.50
2017-05-22T00:07:00.725Z,9.50
2017-05-22T00:09:28.248Z,9.50
2017-05-22T00:11:56.570Z,9.50
2017-05-22T00:14:24.871Z,9.50
2017-05-22T00:16:53.161Z,9.40
2017-05-22T00:19:21.470Z,9.30
2017-05-22T00:21:49.771Z,9.30
2017-05-22T00:24:18.127Z,9.30
2017-05-22T00:26:46.419Z,9.20
2017-05-22T00:29:14.710Z,9.10
2017-05-22T00:31:43.015Z,9.10
2017-05-22T00:34:11.315Z,9.10
2017-05-22T00:36:39.663Z,9.00
2017-05-22T00:39:07.984Z,9.00
2017-05-22T00:41:36.270Z,8.90
2017-05-22T00:44:04.576Z,8.90
2017-05-22T00:46:32.866Z,9.00
2017-05-22T00:49:01.216Z,8.90
2017-05-22T00:51:29.562Z,8.90
2017-05-22T00:53:57.859Z,8.90
2017-05-22T00:56:26.166Z,8.80
2017-05-22T00:58:54.463Z,8.80
2017-05-22T01:01:22.785Z,8.80
2017-05-22T01:03:51.074Z,8.70
2017-05-22T01:06:19.359Z,8.70
2017-05-22T01:08:47.663Z,8.70
2017-05-22T01:11:15.182Z,8.60
2017-05-22T01:13:43.491Z,8.70
2017-05-22T01:16:11.786Z,8.70
2017-05-22T01:18:40.125Z,8.70
2017-05-22T01:21:08.414Z,8.80
2017-05-22T01:23:36.702Z,8.90
2017-05-22T01:26:05.011Z,8.90
2017-05-22T01:28:33.303Z,8.90
2017-05-22T01:31:01.630Z,8.80
2017-05-22T01:33:29.915Z,8.80
2017-05-22T01:35:58.198Z,8.70
2017-05-22T01:38:26.502Z,8.60
2017-05-22T01:40:54.793Z,8.60
2017-05-22T01:43:23.100Z,8.50
2017-05-22T01:45:51.389Z,8.40
2017-05-22T01:48:19.689Z,8.40
2017-05-22T01:50:47.994Z,8.30
2017-05-22T01:53:16.286Z,8.40
2017-05-22T01:55:44.617Z,8.50
2017-05-22T01:58:12.914Z,8.50
2017-05-22T02:00:41.198Z,8.40
2017-05-22T02:03:09.498Z,8.40
2017-05-22T02:05:37.786Z,8.40
2017-05-22T02:08:06.109Z,8.40
2017-05-22T02:10:34.393Z,8.30
2017-05-22T02:13:02.682Z,8.40
2017-05-22T02:15:30.990Z,8.40
2017-05-22T02:17:59.274Z,8.40
2017-05-22T02:20:27.603Z,8.40
2017-05-22T02:22:55.907Z,8.20
2017-05-22T02:25:24.194Z,8.20
2017-05-22T02:27:52.498Z,8.20
2017-05-22T02:30:20.782Z,8.10
2017-05-22T02:32:49.099Z,8.10
2017-05-22T02:35:17.390Z,8.20
2017-05-22T02:37:45.678Z,8.20
2017-05-22T02:40:13.982Z,8.30
2017-05-22T02:42:42.271Z,8.30
2017-05-22T02:45:14.158Z,8.20
2017-05-22T02:47:42.451Z,8.20
2017-05-22T02:50:10.737Z,8.20
2017-05-22T02:52:39.048Z,8.20
2017-05-22T02:55:07.335Z,8.10
2017-05-22T02:57:35.671Z,8.20
2017-05-22T03:00:03.957Z,8.20
2017-05-22T03:02:32.244Z,8.20
2017-05-22T03:05:00.557Z,8.20
2017-05-22T03:07:28.850Z,8.10
2017-05-22T03:09:57.166Z,8.20
2017-05-22T03:12:25.470Z,8.20
2017-05-22T03:14:53.759Z,8.30
2017-05-22T03:17:22.072Z,8.30
2017-05-22T03:19:50.367Z,8.30
2017-05-22T03:22:18.682Z,8.30
2017-05-22T03:24:46.975Z,8.40
2017-05-22T03:27:15.263Z,8.30
2017-05-22T03:29:43.581Z,8.40
2017-05-22T03:32:11.882Z,8.40
2017-05-22T03:34:40.209Z,8.50
2017-05-22T03:37:08.506Z,8.50
2017-05-22T03:39:36.789Z,8.60
2017-05-22T03:42:05.098Z,8.60
2017-05-22T03:44:33.386Z,8.70
2017-05-22T03:47:01.703Z,8.70
2017-05-22T03:49:29.991Z,8.80
2017-05-22T03:51:58.273Z,8.90
2017-05-22T03:54:26.582Z,9.00
2017-05-22T03:56:54.870Z,9.20
2017-05-22T03:59:23.184Z,9.30
2017-05-22T04:01:51.479Z,9.40
2017-05-22T04:04:19.762Z,9.50
2017-05-22T04:06:48.066Z,9.70
2017-05-22T04:09:16.360Z,9.80
2017-05-22T04:11:44.762Z,9.90
2017-05-22T04:14:13.049Z,10.10
2017-05-22T04:16:41.335Z,10.20
2017-05-22T04:19:09.643Z,10.20
2017-05-22T04:21:37.222Z,10.20
2017-05-22T04:24:05.546Z,10.50
2017-05-22T04:26:33.845Z,10.60
2017-05-22T04:29:02.147Z,10.80
2017-05-22T04:31:30.462Z,11.00
2017-05-22T04:33:58.754Z,11.20
2017-05-22T04:36:27.091Z,11.50
2017-05-22T04:38:55.391Z,11.70
2017-05-22T04:41:23.686Z,11.90
2017-05-22T04:43:52.011Z,12.00
2017-05-22T04:46:20.318Z,12.30
2017-05-22T04:48:48.631Z,13.10
2017-05-22T04:51:16.922Z,13.70
2017-05-22T04:53:45.226Z,14.80
2017-05-22T04:56:13.542Z,15.10
2017-05-22T04:58:41.836Z,15.50
2017-05-22T05:01:10.150Z,15.80
2017-05-22T05:03:38.441Z,16.30
2017-05-22T05:06:06.727Z,18.10
2017-05-22T05:08:35.038Z,19.80
2017-05-22T05:11:03.322Z,18.70
2017-05-22T05:13:31.631Z,17.30
2017-05-22T05:15:59.929Z,16.30
2017-05-22T05:18:28.224Z,15.20
2017-05-22T05:20:56.538Z,14.90
2017-05-22T05:23:24.826Z,15.10
2017-05-22T05:25:53.169Z,15.70
2017-05-22T05:28:21.471Z,16.20
2017-05-22T05:30:49.764Z,16.30
2017-05-22T05:33:18.090Z,16.80
2017-05-22T05:35:46.388Z,17.40
2017-05-22T05:38:14.686Z,18.60
2017-05-22T05:40:43.008Z,19.00
2017-05-22T05:43:11.298Z,18.20
2017-05-22T05:45:39.630Z,17.40
2017-05-22T05:48:07.922Z,16.70
2017-05-22T05:50:36.218Z,16.20
2017-05-22T05:53:04.530Z,16.60
2017-05-22T05:55:32.827Z,18.00
2017-05-22T05:58:01.146Z,17.40
2017-05-22T06:00:29.442Z,17.00
2017-05-22T06:02:57.729Z,17.00
2017-05-22T06:05:26.043Z,17.70
2017-05-22T06:07:54.336Z,18.80
2017-05-22T06:10:22.668Z,20.10
2017-05-22T06:12:50.960Z,20.10
2017-05-22T06:15:19.258Z,20.10
2017-05-22T06:17:47.575Z,19.40
2017-05-22T06:20:15.865Z,18.90
2017-05-22T06:22:44.206Z,18.30
2017-05-22T06:25:12.517Z,17.70
2017-05-22T06:27:40.826Z,18.20
2017-05-22T06:30:09.135Z,18.80
2017-05-22T06:32:37.437Z,20.20
2017-05-22T06:35:05.766Z,21.60
2017-05-22T06:37:34.067Z,22.40
2017-05-22T06:40:02.363Z,22.80
2017-05-22T06:42:30.684Z,22.00
2017-05-22T06:44:58.986Z,21.30
2017-05-22T06:47:27.354Z,21.40
2017-05-22T06:49:55.656Z,20.80
2017-05-22T06:52:23.975Z,20.20
2017-05-22T06:54:52.302Z,19.50
2017-05-22T06:57:20.606Z,18.70
2017-05-22T06:59:48.937Z,18.60
2017-05-22T07:02:17.242Z,18.80
2017-05-22T07:04:45.551Z,18.80
2017-05-22T07:07:13.869Z,18.90
2017-05-22T07:09:42.175Z,19.10
2017-05-22T07:12:10.495Z,19.20
2017-05-22T07:14:38.796Z,19.20
2017-05-22T07:17:07.100Z,18.80
2017-05-22T07:19:35.426Z,18.70
2017-05-22T07:22:03.726Z,19.10
2017-05-22T07:24:32.050Z,19.80
2017-05-22T07:27:00.362Z,20.50
2017-05-22T07:29:28.653Z,21.60
2017-05-22T07:31:56.962Z,22.40
2017-05-22T07:34:25.302Z,22.40
2017-05-22T07:36:53.613Z,22.70
2017-05-22T07:39:21.920Z,22.90
2017-05-22T07:41:50.223Z,23.60
2017-05-22T07:44:18.540Z,23.00
2017-05-22T07:46:46.842Z,22.80
2017-05-22T07:49:15.167Z,22.80
2017-05-22T07:51:43.466Z,22.50
2017-05-22T07:54:11.754Z,22.40
2017-05-22T07:56:39.294Z,22.40
2017-05-22T07:59:07.590Z,22.80
2017-05-22T08:01:35.919Z,23.20
2017-05-22T08:04:04.209Z,23.50
2017-05-22T08:06:32.510Z,23.30
2017-05-22T08:09:00.830Z,23.20
2017-05-22T08:11:29.131Z,23.40
2017-05-22T08:13:57.454Z,23.60
2017-05-22T08:16:25.760Z,23.00
2017-05-22T08:18:54.062Z,23.70
2017-05-22T08:21:22.378Z,24.40
2017-05-22T08:23:50.678Z,24.70
2017-05-22T08:26:19.020Z,25.00
2017-05-22T08:28:47.321Z,23.40
2017-05-22T08:31:15.623Z,23.40
2017-05-22T08:33:43.944Z,23.20
2017-05-22T08:36:12.245Z,22.60
2017-05-22T08:38:40.561Z,22.50
2017-05-22T08:41:08.867Z,22.20
2017-05-22T08:43:37.158Z,22.20
2017-05-22T08:46:05.477Z,22.60
2017-05-22T08:48:33.772Z,24.00
2017-05-22T08:51:01.331Z,24.00
2017-05-22T08:53:29.633Z,26.00
2017-05-22T08:55:57.928Z,26.50
2017-05-22T08:58:27.011Z,26.40
2017-05-22T09:00:55.309Z,25.90
2017-05-22T09:03:23.637Z,24.90
2017-05-22T09:05:51.938Z,24.70
2017-05-22T09:08:20.245Z,24.70
2017-05-22T09:10:48.566Z,24.50
2017-05-22T09:13:16.874Z,24.40
2017-05-22T09:15:45.214Z,24.70
2017-05-22T09:18:13.505Z,24.20
2017-05-22T09:20:41.791Z,24.40
2017-05-22T09:23:10.111Z,24.80
2017-05-22T09:25:38.406Z,25.00
2017-05-22T09:28:06.731Z,24.30
2017-05-22T09:30:35.030Z,24.20
2017-05-22T09:33:03.342Z,25.50
2017-05-22T09:35:31.658Z,26.80
2017-05-22T09:37:59.966Z,27.20
2017-05-22T09:40:28.331Z,27.70
2017-05-22T09:42:56.626Z,27.90
2017-05-22T09:45:24.938Z,27.50
2017-05-22T09:47:53.250Z,27.50
2017-05-22T09:50:21.554Z,27.70
2017-05-22T09:52:49.878Z,26.60
2017-05-22T09:55:18.210Z,25.90
2017-05-22T09:57:46.510Z,24.90
2017-05-22T10:00:14.819Z,25.60
2017-05-22T10:02:43.149Z,25.80
2017-05-22T10:05:11.481Z,25.50
2017-05-22T10:07:39.790Z,25.50
2017-05-22T10:10:08.090Z,25.10
2017-05-22T10:12:36.402Z,25.90
2017-05-22T10:15:04.694Z,26.10
2017-05-22T10:17:33.027Z,27.00
2017-05-22T10:20:01.338Z,27.10
2017-05-22T10:22:29.641Z,26.60
2017-05-22T10:24:57.957Z,25.80
2017-05-22T10:27:26.281Z,25.80
2017-05-22T10:29:54.614Z,25.50
2017-05-22T10:32:22.903Z,24.80
2017-05-22T10:34:51.215Z,25.00
2017-05-22T10:37:19.545Z,26.20
2017-05-22T10:39:47.834Z,27.20
2017-05-22T10:42:16.156Z,27.40
2017-05-22T10:44:44.456Z,26.90
2017-05-22T10:47:12.774Z,26.60
2017-05-22T10:49:41.091Z,26.20
2017-05-22T10:52:09.393Z,25.40
2017-05-22T10:54:37.733Z,25.50
2017-05-22T10:57:06.023Z,25.70
2017-05-22T10:59:34.339Z,26.10
2017-05-22T11:02:02.667Z,25.60
2017-05-22T11:04:30.972Z,25.10
2017-05-22T11:06:59.288Z,25.40
2017-05-22T11:09:27.595Z,25.60
2017-05-22T11:11:55.905Z,26.30
2017-05-22T11:14:24.218Z,27.00
2017-05-22T11:16:52.514Z,26.60
2017-05-22T11:19:20.838Z,27.00
2017-05-22T11:21:49.147Z,26.70
2017-05-22T11:24:17.454Z,26.50
2017-05-22T11:26:45.772Z,25.90
2017-05-22T11:29:13.305Z,25.90
2017-05-22T11:31:41.643Z,26.50
2017-05-22T11:34:09.950Z,27.10
2017-05-22T11:36:38.251Z,27.10
2017-05-22T11:39:06.569Z,27.40
2017-05-22T11:41:34.099Z,27.40
2017-05-22T11:44:02.428Z,27.10
2017-05-22T11:46:30.750Z,26.50
2017-05-22T11:48:59.057Z,26.30
2017-05-22T11:51:27.370Z,25.90
2017-05-22T11:53:55.669Z,25.80
2017-05-22T11:56:24.002Z,26.20
2017-05-22T11:58:52.290Z,26.30
2017-05-22T12:01:20.603Z,26.50
2017-05-22T12:03:48.919Z,26.70
2017-05-22T12:06:17.223Z,27.30
2017-05-22T12:08:45.551Z,27.90
2017-05-22T12:11:13.839Z,28.10
2017-05-22T12:13:42.146Z,28.20
2017-05-22T12:16:10.466Z,28.40
2017-05-22T12:18:38.764Z,28.00
2017-05-22T12:21:07.091Z,26.90
2017-05-22T12:23:35.386Z,26.70
2017-05-22T12:26:03.682Z,27.60
2017-05-22T12:28:31.995Z,28.60
2017-05-22T12:31:00.299Z,28.40
2017-05-22T12:33:28.610Z,28.40
2017-05-22T12:35:56.901Z,27.60
2017-05-22T12:38:25.195Z,27.20
2017-05-22T12:40:53.538Z,27.90
2017-05-22T12:43:21.082Z,27.90
2017-05-22T12:45:49.378Z,27.50
2017-05-22T12:48:17.688Z,27.30
2017-05-22T12:50:46.080Z,27.70
2017-05-22T12:53:14.414Z,27.80
2017-05-22T12:55:42.705Z,27.60
2017-05-22T12:58:11.002Z,27.90
2017-05-22T13:00:39.318Z,28.40
2017-05-22T13:03:07.622Z,28.40
2017-05-22T13:05:35.937Z,28.40
2017-05-22T13:08:04.223Z,28.20
2017-05-22T13:10:32.518Z,28.40
2017-05-22T13:13:00.834Z,28.00
2017-05-22T13:15:29.282Z,27.50
2017-05-22T13:17:57.599Z,27.70
2017-05-22T13:20:25.902Z,28.10
2017-05-22T13:22:54.191Z,28.40
2017-05-22T13:25:22.504Z,27.90
2017-05-22T13:27:50.817Z,27.60
2017-05-22T13:30:19.126Z,27.40
2017-05-22T13:32:47.434Z,27.50
2017-05-22T13:35:15.742Z,28.10
2017-05-22T13:37:44.047Z,28.70
2017-05-22T13:40:12.339Z,28.60
2017-05-22T13:42:40.656Z,28.30
2017-05-22T13:45:08.950Z,28.30
2017-05-22T13:47:37.249Z,28.00
2017-05-22T13:50:05.578Z,27.50
2017-05-22T13:52:33.870Z,27.00
2017-05-22T13:55:02.202Z,27.10
2017-05-22T13:57:30.498Z,27.40
2017-05-22T13:59:58.792Z,27.30
2017-05-22T14:02:27.130Z,27.10
2017-05-22T14:04:55.431Z,27.30
2017-05-22T14:07:23.758Z,27.70
2017-05-22T14:09:52.069Z,28.10
2017-05-22T14:12:20.367Z,28.00
2017-05-22T14:14:48.686Z,28.10
2017-05-22T14:17:16.982Z,28.40
2017-05-22T14:19:45.302Z,28.40
2017-05-22T14:22:13.596Z,28.40
2017-05-22T14:24:41.890Z,28.80
2017-05-22T14:27:10.240Z,28.70
2017-05-22T14:29:38.739Z,28.60
2017-05-22T14:32:07.063Z,28.50
2017-05-22T14:34:35.355Z,28.80
2017-05-22T14:37:03.649Z,28.60
2017-05-22T14:39:31.972Z,28.30
2017-05-22T14:42:00.261Z,28.10
2017-05-22T14:44:28.578Z,27.80
2017-05-22T14:46:56.866Z,27.50
2017-05-22T14:49:25.162Z,27.30
2017-05-22T14:51:53.471Z,26.90
2017-05-22T14:54:21.786Z,27.00
2017-05-22T14:56:50.115Z,27.00
2017-05-22T14:59:18.417Z,27.20
2017-05-22T15:01:46.757Z,27.30
2017-05-22T15:04:15.071Z,27.50
2017-05-22T15:06:43.368Z,27.50
2017-05-22T15:09:11.694Z,27.70
2017-05-22T15:11:39.991Z,27.70
2017-05-22T15:14:08.286Z,27.70
2017-05-22T15:16:36.622Z,27.80
2017-05-22T15:19:04.926Z,28.20
2017-05-22T15:21:33.239Z,28.30
2017-05-22T15:24:01.525Z,28.20
2017-05-22T15:26:29.822Z,28.00
2017-05-22T15:28:58.135Z,27.70
2017-05-22T15:31:26.435Z,27.50
2017-05-22T15:33:54.763Z,27.10
2017-05-22T15:36:23.131Z,27.20
2017-05-22T15:38:51.431Z,27.20
2017-05-22T15:41:19.737Z,26.90
2017-05-22T15:43:48.024Z,27.00
2017-05-22T15:46:16.349Z,27.20
2017-05-22T15:48:44.749Z,27.20
2017-05-22T15:51:13.058Z,27.30
2017-05-22T15:53:41.379Z,27.40
2017-05-22T15:56:09.792Z,27.30
2017-05-22T15:58:38.106Z,27.00
2017-05-22T16:01:06.429Z,26.80
2017-05-22T16:03:34.727Z,26.90
2017-05-22T16:06:03.043Z,26.90
2017-05-22T16:08:31.362Z,26.80
2017-05-22T16:10:59.670Z,27.00
2017-05-22T16:13:28.003Z,27.20
2017-05-22T16:15:56.324Z,27.50
2017-05-22T16:18:24.621Z,27.60
2017-05-22T16:20:52.931Z,26.50
2017-05-22T16:23:21.243Z,26.20
2017-05-22T16:25:49.535Z,26.10
2017-05-22T16:28:17.854Z,26.20
2017-05-22T16:30:46.157Z,25.80
2017-05-22T16:33:14.460Z,25.40
2017-05-22T16:35:42.780Z,24.80
2017-05-22T16:38:11.078Z,24.30
2017-05-22T16:40:39.389Z,24.00
2017-05-22T16:43:08.110Z,23.70
2017-05-22T16:45:36.399Z,23.30
2017-05-22T16:48:04.713Z,23.30
2017-05-22T16:50:33.013Z,23.30
2017-05-22T16:53:01.359Z,23.50
2017-05-22T16:55:29.658Z,23.20
2017-05-22T16:57:57.956Z,23.10
2017-05-22T17:00:26.380Z,23.10
2017-05-22T17:02:54.687Z,23.20
2017-05-22T17:05:23.010Z,23.00
2017-05-22T17:07:51.309Z,22.80
2017-05-22T17:10:19.608Z,22.50
2017-05-22T17:12:47.966Z,22.30
2017-05-22T17:15:16.263Z,22.30
2017-05-22T17:17:44.582Z,22.30
2017-05-22T17:20:12.875Z,22.30
2017-05-22T17:22:41.181Z,22.30
2017-05-22T17:25:09.493Z,22.30
2017-05-22T17:27:37.791Z,22.10
2017-05-22T17:30:06.112Z,22.10
2017-05-22T17:32:34.417Z,21.90
2017-05-22T17:35:02.718Z,21.80
2017-05-22T17:37:31.025Z,21.70
2017-05-22T17:39:59.325Z,21.60
2017-05-22T17:42:27.634Z,21.60
2017-05-22T17:44:55.927Z,21.40
2017-05-22T17:47:23.464Z,21.40
2017-05-22T17:49:51.795Z,21.20
2017-05-22T17:52:20.096Z,21.10
2017-05-22T17:54:48.410Z,21.00
2017-05-22T17:57:16.716Z,20.80
2017-05-22T17:59:45.025Z,20.70
2017-05-22T18:02:13.338Z,20.50
2017-05-22T18:04:41.633Z,20.30
2017-05-22T18:07:09.946Z,20.10
2017-05-22T18:09:38.238Z,20.10
2017-05-22T18:12:06.551Z,20.00
2017-05-22T18:14:34.867Z,19.80
2017-05-22T18:17:03.168Z,19.60
2017-05-22T18:19:31.488Z,19.40
2017-05-22T18:21:59.801Z,19.30
2017-05-22T18:24:28.103Z,19.30
2017-05-22T18:26:56.431Z,19.20
2017-05-22T18:29:24.735Z,19.20
2017-05-22T18:31:53.108Z,19.20
2017-05-22T18:34:21.413Z,19.30
2017-05-22T18:36:49.733Z,19.30
2017-05-22T18:39:17.357Z,19.30
2017-05-22T18:41:45.656Z,19.20
2017-05-22T18:44:13.953Z,19.30
2017-05-22T18:46:42.277Z,19.20
2017-05-22T18:49:10.588Z,19.10
2017-05-22T18:51:38.926Z,18.90
2017-05-22T18:54:07.223Z,18.80
2017-05-22T18:56:35.521Z,18.70
2017-05-22T18:59:03.845Z,18.60
2017-05-22T19:01:32.141Z,18.50
2017-05-22T19:04:00.468Z,18.40
2017-05-22T19:06:28.770Z,18.20
2017-05-22T19:08:57.071Z,18.00
2017-05-22T19:11:25.386Z,17.90
2017-05-22T19:13:52.916Z,17.80
2017-05-22T19:16:21.235Z,17.70
2017-05-22T19:18:49.533Z,17.70
2017-05-22T19:21:17.835Z,17.80
2017-05-22T19:23:46.165Z,17.80
2017-05-22T19:26:14.466Z,17.70
2017-05-22T19:28:42.781Z,17.70
2017-05-22T19:31:11.079Z,17.60
2017-05-22T19:33:39.390Z,17.50
2017-05-22T19:36:07.711Z,17.40
2017-05-22T19:38:36.013Z,17.50
2017-05-22T19:41:04.339Z,17.60
2017-05-22T19:43:32.657Z,17.60
2017-05-22T19:46:00.954Z,17.60
2017-05-22T19:48:29.273Z,17.60
2017-05-22T19:50:57.574Z,17.60
2017-05-22T19:53:25.898Z,17.60
2017-05-22T19:55:54.198Z,17.80
2017-05-22T19:58:22.504Z,17.80
2017-05-22T20:00:50.844Z,17.90
2017-05-22T20:03:19.139Z,17.80
2017-05-22T20:05:47.444Z,17.70
2017-05-22T20:08:15.762Z,17.60
2017-05-22T20:10:45.172Z,17.60
2017-05-22T20:13:13.471Z,17.50
2017-05-22T20:15:41.798Z,17.60
2017-05-22T20:18:10.099Z,17.60
2017-05-22T20:20:38.422Z,17.60
2017-05-22T20:23:06.957Z,17.60
2017-05-22T20:25:35.257Z,17.50
2017-05-22T20:28:03.582Z,17.50
2017-05-22T20:30:31.873Z,17.50
2017-05-22T20:33:00.178Z,17.50
2017-05-22T20:35:28.516Z,17.40
2017-05-22T20:37:56.815Z,17.30
2017-05-22T20:40:25.143Z,17.30
2017-05-22T20:42:53.447Z,17.10
2017-05-22T20:45:21.745Z,16.90
2017-05-22T20:47:50.067Z,16.70
2017-05-22T20:50:18.378Z,16.60
2017-05-22T20:52:46.709Z,16.50
2017-05-22T20:55:15.006Z,16.40
2017-05-22T20:57:43.311Z,16.30
2017-05-22T21:00:11.638Z,16.30
2017-05-22T21:02:39.936Z,16.20
2017-05-22T21:05:08.281Z,16.10
2017-05-22T21:07:36.573Z,16.00
2017-05-22T21:10:04.878Z,15.90
2017-05-22T21:12:33.186Z,15.90
2017-05-22T21:15:01.481Z,15.80
2017-05-22T21:17:29.800Z,15.70
2017-05-22T21:19:58.097Z,15.60
2017-05-22T21:22:26.394Z,15.50
2017-05-22T21:24:54.714Z,15.50
2017-05-22T21:27:23.006Z,15.50
2017-05-22T21:29:51.319Z,15.50
2017-05-22T21:32:19.636Z,15.50
2017-05-22T21:34:47.964Z,15.50
2017-05-22T21:37:16.250Z,15.50
2017-05-22T21:39:44.563Z,15.50
2017-05-22T21:42:12.875Z,15.40
2017-05-22T21:44:41.178Z,15.40
2017-05-22T21:47:09.494Z,15.30
2017-05-22T21:49:37.794Z,15.20
2017-05-22T21:52:06.090Z,15.10
2017-05-22T21:54:34.402Z,15.00
2017-05-22T21:57:02.699Z,14.80
2017-05-22T21:59:31.021Z,14.60
2017-05-22T22:01:59.326Z,14.50
2017-05-22T22:04:27.620Z,14.40
2017-05-22T22:06:55.934Z,14.20
2017-05-22T22:09:24.238Z,14.10
2017-05-22T22:11:52.553Z,14.00
2017-05-22T22:14:20.850Z,13.90
2017-05-22T22:16:49.145Z,13.80
2017-05-22T22:19:17.453Z,13.80
2017-05-22T22:21:45.748Z,13.80
2017-05-22T22:24:14.075Z,13.70
2017-05-22T22:26:42.368Z,13.60
2017-05-22T22:29:09.907Z,13.60
2017-05-22T22:31:38.228Z,13.70
2017-05-22T22:34:06.527Z,13.70
2017-05-22T22:36:34.846Z,13.70
2017-05-22T22:39:03.146Z,13.80
2017-05-22T22:41:31.429Z,13.80
2017-05-22T22:43:59.734Z,13.80
2017-05-22T22:46:28.022Z,13.80
2017-05-22T22:48:56.338Z,13.70
2017-05-22T22:51:24.631Z,13.60
2017-05-22T22:53:52.922Z,13.60
2017-05-22T22:56:21.243Z,13.50
2017-05-22T22:58:49.550Z,13.50
2017-05-22T23:01:17.884Z,13.50
2017-05-22T23:03:46.183Z,13.50
2017-05-22T23:06:14.485Z,13.50
2017-05-22T23:08:42.804Z,13.60
2017-05-22T23:11:11.098Z,13.60
2017-05-22T23:13:39.424Z,13.60
2017-05-22T23:16:07.721Z,13.60
2017-05-22T23:18:36.018Z,13.60
2017-05-22T23:21:04.335Z,13.60
2017-05-22T23:23:32.637Z,13.50
2017-05-22T23:26:00.946Z,13.50
2017-05-22T23:28:29.233Z,13.40
2017-05-22T23:30:57.550Z,13.40
2017-05-22T23:33:25.848Z,13.20
2017-05-22T23:35:54.151Z,13.20
2017-05-22T23:38:22.466Z,13.10
2017-05-22T23:40:50.769Z,13.00
2017-05-22T23:43:19.090Z,13.00
2017-05-22T23:45:47.375Z,13.00
2017-05-22T23:48:15.674Z,13.10
2017-05-22T23:50:43.980Z,13.10
2017-05-22T23:53:12.280Z,13.00
2017-05-22T23:55:40.589Z,13.00
2017-05-22T23:58:08.891Z,12.90
